VAW9907 LBPD-DAAG
Flight info
| Callsign | VAW9907 |
|---|---|
| Flight time | 3h 25m |
| Altitude | 38000 |
| Route | RUMEN N739 PIDOR T214 LETNI DCT MAVAR DCT EBELA/N0445F390 DCT LUXIL DCT BUMOK DCT MALOG DCT BETOT DCT QUENN DCT DEXUL DCT XATOS DCT REQIN UG26 BOURI UM986 LIMON UG26 ZEM |
| Aircraft | A320/M-SDE3FGHIRWY/LB1 |
Departure
| Time | 2026-05-04 09:07 |
|---|---|
| Airport | Plovdiv International Airport (LBPD) |
Arrival
| Time | 2026-05-04 12:33 |
|---|---|
| Airport | Houari Boumediene Airport (DAAG) |
| Time | Latitude | Longitude | Altitude | Speed | Heading |
|---|---|---|---|---|---|
| 2026-05-04 08:46 | 42.07550 | 24.84474 | 581 ft | 0 kts | 37° |
| 2026-05-04 09:01 | 42.07594 | 24.84204 | 581 ft | 0 kts | 127° |
| 2026-05-04 09:02 | 42.07572 | 24.84243 | 581 ft | 11 kts | 127° |
| 2026-05-04 09:03 | 42.07496 | 24.84269 | 581 ft | 13 kts | 207° |
| 2026-05-04 09:03 | 42.07429 | 24.84321 | 581 ft | 15 kts | 128° |
| 2026-05-04 09:03 | 42.07350 | 24.84461 | 581 ft | 20 kts | 127° |
| 2026-05-04 09:03 | 42.07266 | 24.84610 | 581 ft | 20 kts | 127° |
| 2026-05-04 09:04 | 42.07183 | 24.84757 | 581 ft | 20 kts | 127° |
| 2026-05-04 09:04 | 42.07101 | 24.84902 | 581 ft | 22 kts | 127° |
| 2026-05-04 09:04 | 42.06993 | 24.85094 | 581 ft | 26 kts | 127° |
| 2026-05-04 09:04 | 42.06885 | 24.85284 | 581 ft | 25 kts | 128° |
| 2026-05-04 09:05 | 42.06781 | 24.85468 | 581 ft | 24 kts | 126° |
| 2026-05-04 09:05 | 42.06683 | 24.85643 | 581 ft | 23 kts | 128° |
| 2026-05-04 09:05 | 42.06586 | 24.85810 | 581 ft | 22 kts | 127° |
| 2026-05-04 09:05 | 42.06495 | 24.85972 | 581 ft | 21 kts | 127° |
| 2026-05-04 09:06 | 42.06405 | 24.86130 | 581 ft | 21 kts | 127° |
| 2026-05-04 09:07 | 42.07911 | 24.83098 | 1993 ft | 159 kts | 307° |
| 2026-05-04 09:08 | 42.08626 | 24.81846 | 2707 ft | 175 kts | 305° |
| 2026-05-04 09:08 | 42.09371 | 24.80530 | 3638 ft | 179 kts | 307° |
| 2026-05-04 09:08 | 42.10111 | 24.79187 | 4532 ft | 179 kts | 306° |
| 2026-05-04 09:08 | 42.10816 | 24.77683 | 5090 ft | 201 kts | 303° |
| 2026-05-04 09:09 | 42.11557 | 24.75965 | 5582 ft | 225 kts | 302° |
| 2026-05-04 09:09 | 42.12376 | 24.74034 | 6201 ft | 250 kts | 303° |
| 2026-05-04 09:09 | 42.13265 | 24.71924 | 7035 ft | 265 kts | 303° |
| 2026-05-04 09:09 | 42.14192 | 24.69728 | 8033 ft | 274 kts | 303° |
| 2026-05-04 09:10 | 42.15147 | 24.67471 | 9061 ft | 281 kts | 304° |
| 2026-05-04 09:10 | 42.16130 | 24.65153 | 10094 ft | 288 kts | 304° |
| 2026-05-04 09:10 | 42.17173 | 24.62714 | 10642 ft | 313 kts | 304° |
| 2026-05-04 09:10 | 42.18303 | 24.60083 | 11157 ft | 334 kts | 304° |
| 2026-05-04 09:11 | 42.19478 | 24.57334 | 12007 ft | 342 kts | 304° |
| 2026-05-04 09:11 | 42.20670 | 24.54533 | 12976 ft | 346 kts | 303° |
| 2026-05-04 09:11 | 42.21874 | 24.51704 | 13952 ft | 350 kts | 303° |
| 2026-05-04 09:11 | 42.23090 | 24.48844 | 14792 ft | 354 kts | 303° |
| 2026-05-04 09:12 | 42.24320 | 24.45945 | 15605 ft | 358 kts | 303° |
| 2026-05-04 09:12 | 42.25549 | 24.43044 | 16405 ft | 362 kts | 302° |
| 2026-05-04 09:14 | 42.34905 | 24.21413 | 21321 ft | 400 kts | 302° |
| 2026-05-04 09:14 | 42.36368 | 24.18184 | 21994 ft | 405 kts | 302° |
| 2026-05-04 09:14 | 42.37842 | 24.14910 | 22632 ft | 411 kts | 302° |
| 2026-05-04 09:14 | 42.39328 | 24.11590 | 23300 ft | 415 kts | 302° |
| 2026-05-04 09:15 | 42.40826 | 24.08233 | 23906 ft | 419 kts | 302° |
| 2026-05-04 09:15 | 42.42337 | 24.04836 | 24367 ft | 425 kts | 302° |
| 2026-05-04 09:15 | 42.43867 | 24.01386 | 24866 ft | 429 kts | 301° |
| 2026-05-04 09:15 | 42.45408 | 23.97908 | 25385 ft | 432 kts | 301° |
| 2026-05-04 09:17 | 42.55903 | 23.67813 | 29128 ft | 459 kts | 272° |
| 2026-05-04 09:18 | 42.55859 | 23.63481 | 29542 ft | 461 kts | 263° |
| 2026-05-04 09:18 | 42.55323 | 23.59187 | 29939 ft | 462 kts | 254° |
| 2026-05-04 09:18 | 42.54273 | 23.55072 | 30308 ft | 463 kts | 244° |
| 2026-05-04 09:18 | 42.52720 | 23.51238 | 30610 ft | 464 kts | 236° |
| 2026-05-04 09:19 | 42.50978 | 23.47535 | 30899 ft | 468 kts | 236° |
| 2026-05-04 09:19 | 42.49224 | 23.43808 | 31174 ft | 471 kts | 237° |
| 2026-05-04 09:19 | 42.47459 | 23.40055 | 31415 ft | 474 kts | 238° |
| 2026-05-04 09:19 | 42.45678 | 23.36267 | 31654 ft | 478 kts | 238° |
| 2026-05-04 09:20 | 42.43898 | 23.32477 | 31999 ft | 478 kts | 239° |
| 2026-05-04 09:20 | 42.42114 | 23.28675 | 32358 ft | 478 kts | 239° |
| 2026-05-04 09:20 | 42.40357 | 23.24931 | 32731 ft | 478 kts | 239° |
| 2026-05-04 09:20 | 42.38550 | 23.21087 | 33102 ft | 478 kts | 239° |
| 2026-05-04 09:21 | 42.36784 | 23.17345 | 33442 ft | 479 kts | 239° |
| 2026-05-04 09:21 | 42.34989 | 23.13553 | 33814 ft | 479 kts | 239° |
| 2026-05-04 09:21 | 42.33192 | 23.09762 | 34163 ft | 479 kts | 240° |
| 2026-05-04 09:21 | 42.31396 | 23.05970 | 34509 ft | 478 kts | 240° |
| 2026-05-04 09:22 | 42.29605 | 23.02190 | 34859 ft | 477 kts | 240° |
| 2026-05-04 09:22 | 42.27818 | 22.98418 | 35207 ft | 477 kts | 240° |
| 2026-05-04 09:22 | 42.26028 | 22.94647 | 35538 ft | 476 kts | 240° |
| 2026-05-04 09:22 | 42.24243 | 22.90898 | 35878 ft | 475 kts | 240° |
| 2026-05-04 09:23 | 42.22453 | 22.87150 | 36202 ft | 475 kts | 240° |
| 2026-05-04 09:23 | 42.20661 | 22.83408 | 36519 ft | 474 kts | 240° |
| 2026-05-04 09:23 | 42.18872 | 22.79679 | 36814 ft | 474 kts | 240° |
| 2026-05-04 09:23 | 42.17085 | 22.75952 | 37080 ft | 474 kts | 240° |
| 2026-05-04 09:25 | 42.07350 | 22.48491 | 38177 ft | 462 kts | 259° |
| 2026-05-04 09:25 | 42.06537 | 22.44310 | 38154 ft | 462 kts | 259° |
| 2026-05-04 09:26 | 42.04881 | 22.35988 | 38176 ft | 460 kts | 259° |
| 2026-05-04 09:26 | 42.03221 | 22.27686 | 38175 ft | 459 kts | 259° |
| 2026-05-04 09:27 | 42.01564 | 22.19391 | 38181 ft | 459 kts | 259° |
| 2026-05-04 09:27 | 41.99911 | 22.11090 | 38166 ft | 459 kts | 260° |
| 2026-05-04 09:28 | 41.98254 | 22.02814 | 38209 ft | 458 kts | 259° |
| 2026-05-04 09:28 | 41.96596 | 21.94608 | 38212 ft | 458 kts | 259° |
| 2026-05-04 09:29 | 41.94927 | 21.86366 | 38214 ft | 457 kts | 259° |
| 2026-05-04 09:29 | 41.93257 | 21.78137 | 38192 ft | 457 kts | 260° |
| 2026-05-04 09:30 | 41.91579 | 21.69916 | 38201 ft | 456 kts | 260° |
| 2026-05-04 09:30 | 41.89896 | 21.61714 | 38207 ft | 456 kts | 260° |
| 2026-05-04 09:31 | 41.88207 | 21.53511 | 38206 ft | 456 kts | 260° |
| 2026-05-04 09:31 | 41.86524 | 21.45317 | 38207 ft | 456 kts | 260° |
| 2026-05-04 09:32 | 41.84829 | 21.37118 | 38206 ft | 456 kts | 259° |
| 2026-05-04 09:34 | 41.77977 | 21.04417 | 38205 ft | 454 kts | 259° |
| 2026-05-04 09:34 | 41.76262 | 20.96262 | 38208 ft | 455 kts | 259° |
| 2026-05-04 09:35 | 41.74535 | 20.88130 | 38211 ft | 454 kts | 259° |
| 2026-05-04 09:35 | 41.72804 | 20.80011 | 38186 ft | 453 kts | 259° |
| 2026-05-04 09:37 | 41.65727 | 20.47966 | 38219 ft | 449 kts | 256° |
| 2026-05-04 09:38 | 41.63471 | 20.40187 | 38208 ft | 449 kts | 254° |
| 2026-05-04 09:38 | 41.61134 | 20.32463 | 38209 ft | 447 kts | 254° |
| 2026-05-04 09:39 | 41.58875 | 20.24744 | 38208 ft | 446 kts | 255° |
| 2026-05-04 09:39 | 41.56681 | 20.17074 | 38210 ft | 445 kts | 255° |
| 2026-05-04 09:40 | 41.54467 | 20.09368 | 38184 ft | 444 kts | 255° |
| 2026-05-04 09:40 | 41.52238 | 20.01686 | 38190 ft | 444 kts | 255° |
| 2026-05-04 09:42 | 41.43277 | 19.71054 | 38181 ft | 442 kts | 255° |
| 2026-05-04 09:43 | 41.41038 | 19.63436 | 38204 ft | 441 kts | 255° |
| 2026-05-04 09:43 | 41.38791 | 19.55827 | 38202 ft | 441 kts | 255° |
| 2026-05-04 09:44 | 41.36532 | 19.48229 | 38202 ft | 441 kts | 255° |
| 2026-05-04 09:46 | 41.27510 | 19.17990 | 38199 ft | 440 kts | 255° |
| 2026-05-04 09:46 | 41.25243 | 19.10436 | 38185 ft | 440 kts | 254° |
| 2026-05-04 09:47 | 41.22972 | 19.02896 | 38190 ft | 439 kts | 254° |
| 2026-05-04 09:49 | 41.16081 | 18.72232 | 38180 ft | 431 kts | 262° |
| 2026-05-04 09:51 | 41.11278 | 18.45135 | 38191 ft | 431 kts | 262° |
| 2026-05-04 09:51 | 41.09907 | 18.37418 | 38189 ft | 429 kts | 262° |
| 2026-05-04 09:52 | 41.08537 | 18.29771 | 38201 ft | 429 kts | 262° |
| 2026-05-04 09:52 | 41.07142 | 18.22047 | 38202 ft | 428 kts | 262° |
| 2026-05-04 09:53 | 41.05767 | 18.14429 | 38200 ft | 427 kts | 262° |
| 2026-05-04 09:53 | 41.04383 | 18.06773 | 38212 ft | 428 kts | 262° |
| 2026-05-04 09:54 | 41.02985 | 17.99117 | 38205 ft | 427 kts | 262° |
| 2026-05-04 09:54 | 41.01585 | 17.91478 | 38201 ft | 427 kts | 262° |
| 2026-05-04 09:55 | 41.00180 | 17.83848 | 38194 ft | 427 kts | 262° |
| 2026-05-04 09:55 | 40.98773 | 17.76220 | 38193 ft | 426 kts | 262° |
| 2026-05-04 09:56 | 40.97370 | 17.68612 | 38197 ft | 425 kts | 261° |
| 2026-05-04 09:56 | 40.95961 | 17.61027 | 38196 ft | 424 kts | 261° |
| 2026-05-04 09:57 | 40.94542 | 17.53465 | 38199 ft | 424 kts | 261° |
| 2026-05-04 09:57 | 40.93365 | 17.47180 | 38203 ft | 423 kts | 261° |
| 2026-05-04 09:58 | 40.91951 | 17.39627 | 38185 ft | 423 kts | 261° |
| 2026-05-04 09:58 | 40.90528 | 17.32083 | 38197 ft | 422 kts | 261° |
| 2026-05-04 10:00 | 40.84805 | 17.02057 | 38183 ft | 421 kts | 260° |
| 2026-05-04 10:04 | 40.78732 | 16.49111 | 38174 ft | 416 kts | 267° |
| 2026-05-04 10:04 | 40.78088 | 16.41518 | 38182 ft | 417 kts | 267° |
| 2026-05-04 10:05 | 40.77436 | 16.33919 | 38167 ft | 417 kts | 266° |
| 2026-05-04 10:05 | 40.76773 | 16.26340 | 38180 ft | 416 kts | 266° |
| 2026-05-04 10:06 | 40.76107 | 16.18772 | 38184 ft | 415 kts | 266° |
| 2026-05-04 10:06 | 40.75440 | 16.11215 | 38184 ft | 414 kts | 266° |
| 2026-05-04 10:08 | 40.73064 | 15.84878 | 38186 ft | 414 kts | 265° |
| 2026-05-04 10:08 | 40.72374 | 15.77356 | 38191 ft | 413 kts | 265° |
| 2026-05-04 10:09 | 40.71674 | 15.69836 | 38185 ft | 413 kts | 265° |
| 2026-05-04 10:09 | 40.71005 | 15.62324 | 38179 ft | 412 kts | 266° |
| 2026-05-04 10:10 | 40.70438 | 15.54811 | 38184 ft | 411 kts | 267° |
| 2026-05-04 10:10 | 40.69879 | 15.47320 | 38194 ft | 411 kts | 266° |
| 2026-05-04 10:11 | 40.69289 | 15.39833 | 38201 ft | 410 kts | 266° |
| 2026-05-04 10:11 | 40.68685 | 15.32363 | 38208 ft | 410 kts | 266° |
| 2026-05-04 10:12 | 40.68076 | 15.24885 | 38205 ft | 410 kts | 266° |
| 2026-05-04 10:12 | 40.67463 | 15.17421 | 38219 ft | 410 kts | 266° |
| 2026-05-04 10:13 | 40.66852 | 15.09961 | 38221 ft | 410 kts | 266° |
| 2026-05-04 10:13 | 40.66229 | 15.02502 | 38221 ft | 409 kts | 266° |
| 2026-05-04 10:14 | 40.65601 | 14.95048 | 38233 ft | 409 kts | 266° |
| 2026-05-04 10:16 | 40.63069 | 14.65347 | 38232 ft | 409 kts | 266° |
| 2026-05-04 10:16 | 40.62426 | 14.57918 | 38228 ft | 409 kts | 266° |
| 2026-05-04 10:17 | 40.61772 | 14.50485 | 38232 ft | 408 kts | 266° |
| 2026-05-04 10:19 | 40.59126 | 14.20814 | 38222 ft | 408 kts | 266° |
| 2026-05-04 10:19 | 40.58450 | 14.13406 | 38236 ft | 407 kts | 266° |
| 2026-05-04 10:20 | 40.57777 | 14.06015 | 38239 ft | 407 kts | 266° |
| 2026-05-04 10:20 | 40.57097 | 13.98629 | 38234 ft | 406 kts | 266° |
| 2026-05-04 10:21 | 40.56418 | 13.91305 | 38230 ft | 406 kts | 266° |
| 2026-05-04 10:21 | 40.55724 | 13.83935 | 38221 ft | 406 kts | 266° |
| 2026-05-04 10:22 | 40.54685 | 13.72902 | 38226 ft | 405 kts | 266° |
| 2026-05-04 10:23 | 40.53982 | 13.65548 | 38227 ft | 405 kts | 266° |
| 2026-05-04 10:25 | 40.51809 | 13.36248 | 38229 ft | 400 kts | 268° |
| 2026-05-04 10:25 | 40.51307 | 13.28970 | 38229 ft | 400 kts | 268° |
| 2026-05-04 10:26 | 40.50790 | 13.21693 | 38228 ft | 400 kts | 268° |
| 2026-05-04 10:26 | 40.50272 | 13.14426 | 38227 ft | 400 kts | 268° |
| 2026-05-04 10:27 | 40.49759 | 13.07165 | 38231 ft | 398 kts | 268° |
| 2026-05-04 10:27 | 40.49245 | 12.99932 | 38232 ft | 397 kts | 268° |
| 2026-05-04 10:28 | 40.48726 | 12.92707 | 38232 ft | 397 kts | 268° |
| 2026-05-04 10:28 | 40.48207 | 12.85550 | 38228 ft | 396 kts | 268° |
| 2026-05-04 10:29 | 40.47675 | 12.78350 | 38226 ft | 396 kts | 268° |
| 2026-05-04 10:29 | 40.47135 | 12.71172 | 38225 ft | 394 kts | 268° |
| 2026-05-04 10:30 | 40.46598 | 12.64010 | 38226 ft | 393 kts | 268° |
| 2026-05-04 10:30 | 40.46061 | 12.56869 | 38220 ft | 393 kts | 268° |
| 2026-05-04 10:31 | 40.45520 | 12.49745 | 38217 ft | 392 kts | 268° |
| 2026-05-04 10:32 | 40.43598 | 12.24898 | 38207 ft | 390 kts | 268° |
| 2026-05-04 10:33 | 40.43042 | 12.17826 | 38207 ft | 390 kts | 268° |
| 2026-05-04 10:33 | 40.42481 | 12.10750 | 38207 ft | 390 kts | 268° |
| 2026-05-04 10:34 | 40.41920 | 12.03733 | 38198 ft | 389 kts | 268° |
| 2026-05-04 10:34 | 40.41353 | 11.96678 | 38205 ft | 388 kts | 268° |
| 2026-05-04 10:35 | 40.40783 | 11.89647 | 38204 ft | 387 kts | 268° |
| 2026-05-04 10:35 | 40.40210 | 11.82628 | 38199 ft | 387 kts | 268° |
| 2026-05-04 10:36 | 40.39629 | 11.75611 | 38197 ft | 387 kts | 268° |
| 2026-05-04 10:36 | 40.39043 | 11.68605 | 38190 ft | 387 kts | 268° |
| 2026-05-04 10:37 | 40.38282 | 11.61618 | 38191 ft | 390 kts | 260° |
| 2026-05-04 10:37 | 40.36913 | 11.54742 | 38189 ft | 390 kts | 260° |
| 2026-05-04 10:39 | 40.32115 | 11.30697 | 38155 ft | 390 kts | 260° |
| 2026-05-04 10:40 | 40.30729 | 11.23818 | 38162 ft | 391 kts | 259° |
| 2026-05-04 10:40 | 40.29348 | 11.16987 | 38177 ft | 391 kts | 259° |
| 2026-05-04 10:41 | 40.27958 | 11.10111 | 38178 ft | 391 kts | 259° |
| 2026-05-04 10:41 | 40.26558 | 11.03242 | 38179 ft | 390 kts | 259° |
| 2026-05-04 10:42 | 40.25162 | 10.96371 | 38173 ft | 390 kts | 259° |
| 2026-05-04 10:42 | 40.23759 | 10.89512 | 38173 ft | 390 kts | 259° |
| 2026-05-04 10:43 | 40.22346 | 10.82655 | 38166 ft | 390 kts | 259° |
| 2026-05-04 10:45 | 40.16682 | 10.55277 | 38154 ft | 390 kts | 258° |
| 2026-05-04 10:45 | 40.15246 | 10.48451 | 38156 ft | 389 kts | 258° |
| 2026-05-04 10:46 | 40.13799 | 10.41637 | 38149 ft | 389 kts | 258° |
| 2026-05-04 10:46 | 40.12343 | 10.34824 | 38148 ft | 389 kts | 258° |
| 2026-05-04 10:47 | 40.10890 | 10.28017 | 38151 ft | 389 kts | 258° |
| 2026-05-04 10:47 | 40.09436 | 10.21208 | 38144 ft | 389 kts | 258° |
| 2026-05-04 10:49 | 40.03584 | 9.94146 | 38138 ft | 387 kts | 258° |
| 2026-05-04 10:50 | 40.02115 | 9.87400 | 38145 ft | 386 kts | 258° |
| 2026-05-04 10:52 | 39.96468 | 9.61617 | 38151 ft | 385 kts | 257° |
| 2026-05-04 10:52 | 39.94978 | 9.54916 | 38148 ft | 385 kts | 257° |
| 2026-05-04 10:54 | 39.89031 | 9.28227 | 38138 ft | 382 kts | 257° |
| 2026-05-04 10:56 | 39.84174 | 9.01512 | 38127 ft | 378 kts | 262° |
| 2026-05-04 10:57 | 39.83255 | 8.94771 | 38125 ft | 378 kts | 262° |
| 2026-05-04 10:57 | 39.82326 | 8.88044 | 38122 ft | 378 kts | 262° |
| 2026-05-04 10:58 | 39.81399 | 8.81326 | 38123 ft | 377 kts | 262° |
| 2026-05-04 10:58 | 39.80469 | 8.74612 | 38114 ft | 377 kts | 262° |
| 2026-05-04 10:59 | 39.79537 | 8.67942 | 38119 ft | 377 kts | 262° |
| 2026-05-04 10:59 | 39.78604 | 8.61243 | 38113 ft | 376 kts | 262° |
| 2026-05-04 11:00 | 39.77669 | 8.54559 | 38112 ft | 376 kts | 262° |
| 2026-05-04 11:02 | 39.73883 | 8.27912 | 38097 ft | 374 kts | 261° |
| 2026-05-04 11:05 | 39.61944 | 7.79694 | 38087 ft | 380 kts | 247° |
| 2026-05-04 11:06 | 39.59573 | 7.73620 | 38084 ft | 380 kts | 247° |
| 2026-05-04 11:06 | 39.57187 | 7.67515 | 38081 ft | 380 kts | 247° |
| 2026-05-04 11:10 | 39.40365 | 7.24907 | 38078 ft | 380 kts | 246° |
| 2026-05-04 11:12 | 39.30674 | 7.00611 | 38051 ft | 382 kts | 246° |
| 2026-05-04 11:12 | 39.28248 | 6.94560 | 38049 ft | 382 kts | 246° |
| 2026-05-04 11:13 | 39.25783 | 6.88438 | 38050 ft | 382 kts | 246° |
| 2026-05-04 11:13 | 39.23344 | 6.82395 | 38065 ft | 382 kts | 246° |
| 2026-05-04 11:14 | 39.20890 | 6.76313 | 38071 ft | 382 kts | 246° |
| 2026-05-04 11:16 | 39.11053 | 6.52047 | 38039 ft | 383 kts | 246° |
| 2026-05-04 11:16 | 39.08575 | 6.45961 | 38058 ft | 384 kts | 245° |
| 2026-05-04 11:17 | 39.06093 | 6.39889 | 38067 ft | 383 kts | 245° |
| 2026-05-04 11:19 | 38.95920 | 6.19845 | 38069 ft | 392 kts | 230° |
| 2026-05-04 11:19 | 38.93968 | 6.17402 | 38053 ft | 392 kts | 230° |
| 2026-05-04 11:19 | 38.90093 | 6.12541 | 38054 ft | 392 kts | 230° |
| 2026-05-04 11:20 | 38.86194 | 6.07634 | 38073 ft | 392 kts | 230° |
| 2026-05-04 11:20 | 38.82277 | 6.02713 | 38073 ft | 391 kts | 230° |
| 2026-05-04 11:22 | 38.66739 | 5.83309 | 38046 ft | 391 kts | 229° |
| 2026-05-04 11:23 | 38.62839 | 5.78453 | 38053 ft | 392 kts | 229° |
| 2026-05-04 11:25 | 38.49170 | 5.61513 | 38058 ft | 390 kts | 229° |
| 2026-05-04 11:25 | 38.45275 | 5.56701 | 38064 ft | 389 kts | 229° |
| 2026-05-04 11:27 | 38.27774 | 5.35178 | 38066 ft | 388 kts | 229° |
| 2026-05-04 11:28 | 38.23910 | 5.30447 | 38068 ft | 388 kts | 229° |
| 2026-05-04 11:28 | 38.19992 | 5.25653 | 38068 ft | 388 kts | 229° |
| 2026-05-04 11:29 | 38.16128 | 5.20933 | 38068 ft | 388 kts | 228° |
| 2026-05-04 11:29 | 38.12232 | 5.16193 | 38068 ft | 388 kts | 228° |
| 2026-05-04 11:33 | 37.85012 | 4.83071 | 38026 ft | 386 kts | 227° |
| 2026-05-04 11:33 | 37.81133 | 4.78367 | 38036 ft | 386 kts | 228° |
| 2026-05-04 11:34 | 37.77257 | 4.73676 | 38045 ft | 386 kts | 227° |
| 2026-05-04 11:34 | 37.73375 | 4.68987 | 38043 ft | 386 kts | 227° |
| 2026-05-04 11:35 | 37.69522 | 4.64334 | 38040 ft | 386 kts | 227° |
| 2026-05-04 11:35 | 37.65638 | 4.59645 | 38045 ft | 387 kts | 227° |
| 2026-05-04 11:36 | 37.61744 | 4.54958 | 38021 ft | 387 kts | 227° |
| 2026-05-04 11:36 | 37.57845 | 4.50277 | 38029 ft | 387 kts | 227° |
| 2026-05-04 11:37 | 37.53943 | 4.45584 | 38036 ft | 388 kts | 227° |
| 2026-05-04 11:37 | 37.50038 | 4.40903 | 38043 ft | 388 kts | 227° |
| 2026-05-04 11:38 | 37.46121 | 4.36226 | 38049 ft | 388 kts | 227° |
| 2026-05-04 11:38 | 37.42209 | 4.31555 | 38052 ft | 388 kts | 227° |
| 2026-05-04 11:39 | 37.38296 | 4.26879 | 38012 ft | 388 kts | 227° |
| 2026-05-04 11:41 | 37.24597 | 4.10599 | 38048 ft | 388 kts | 227° |
| 2026-05-04 11:41 | 37.20673 | 4.05950 | 38046 ft | 388 kts | 227° |
| 2026-05-04 11:42 | 37.16752 | 4.01307 | 38049 ft | 388 kts | 227° |
| 2026-05-04 11:42 | 37.12823 | 3.96668 | 38021 ft | 388 kts | 227° |
| 2026-05-04 11:43 | 37.08887 | 3.92023 | 38032 ft | 389 kts | 227° |
| 2026-05-04 11:43 | 37.05609 | 3.88165 | 38043 ft | 389 kts | 227° |
| 2026-05-04 11:44 | 37.01696 | 3.83493 | 38048 ft | 389 kts | 227° |
| 2026-05-04 11:44 | 36.97789 | 3.78811 | 38063 ft | 389 kts | 227° |
| 2026-05-04 11:45 | 36.93868 | 3.74135 | 38069 ft | 389 kts | 227° |
| 2026-05-04 11:45 | 36.89949 | 3.69478 | 38033 ft | 385 kts | 227° |
| 2026-05-04 11:45 | 36.88046 | 3.67225 | 38040 ft | 368 kts | 227° |
| 2026-05-04 11:46 | 36.86230 | 3.65078 | 38029 ft | 352 kts | 227° |
| 2026-05-04 11:46 | 36.84496 | 3.63022 | 38040 ft | 336 kts | 227° |
| 2026-05-04 11:46 | 36.82837 | 3.61054 | 38040 ft | 322 kts | 227° |
| 2026-05-04 11:46 | 36.81246 | 3.59169 | 38038 ft | 311 kts | 228° |
| 2026-05-04 11:47 | 36.79909 | 3.57128 | 38029 ft | 299 kts | 248° |
| 2026-05-04 11:47 | 36.79490 | 3.54613 | 38044 ft | 300 kts | 265° |
| 2026-05-04 11:47 | 36.79493 | 3.52002 | 38038 ft | 302 kts | 268° |
| 2026-05-04 11:48 | 36.79777 | 3.46759 | 38044 ft | 303 kts | 270° |
| 2026-05-04 11:48 | 36.80070 | 3.41509 | 38046 ft | 302 kts | 267° |
| 2026-05-04 11:48 | 36.79721 | 3.38979 | 38053 ft | 297 kts | 246° |
| 2026-05-04 11:49 | 36.78722 | 3.36716 | 38058 ft | 299 kts | 238° |
| 2026-05-04 11:49 | 36.77483 | 3.34627 | 38049 ft | 300 kts | 234° |
| 2026-05-04 11:49 | 36.76154 | 3.32614 | 38050 ft | 301 kts | 233° |
| 2026-05-04 11:50 | 36.73478 | 3.28593 | 38058 ft | 301 kts | 234° |
| 2026-05-04 11:50 | 36.70893 | 3.24496 | 38061 ft | 300 kts | 237° |
| 2026-05-04 11:50 | 36.70053 | 3.22165 | 38034 ft | 297 kts | 262° |
| 2026-05-04 11:51 | 36.70306 | 3.19590 | 38058 ft | 310 kts | 288° |
| 2026-05-04 11:51 | 36.71609 | 3.17415 | 38059 ft | 333 kts | 314° |
| 2026-05-04 11:51 | 36.73799 | 3.16126 | 38056 ft | 361 kts | 340° |
| 2026-05-04 11:51 | 36.76386 | 3.16038 | 38066 ft | 381 kts | 355° |
| 2026-05-04 11:52 | 36.79035 | 3.16262 | 38053 ft | 382 kts | 355° |
| 2026-05-04 11:52 | 36.84321 | 3.16710 | 38052 ft | 383 kts | 355° |
| 2026-05-04 11:53 | 36.89682 | 3.17168 | 38052 ft | 383 kts | 355° |
| 2026-05-04 11:53 | 36.94836 | 3.16908 | 38050 ft | 359 kts | 332° |
| 2026-05-04 11:55 | 37.14256 | 3.10263 | 38040 ft | 362 kts | 334° |
| 2026-05-04 11:56 | 37.19107 | 3.08578 | 38043 ft | 362 kts | 334° |
| 2026-05-04 11:56 | 37.23963 | 3.06898 | 38037 ft | 362 kts | 334° |
| 2026-05-04 11:57 | 37.28818 | 3.05224 | 38063 ft | 362 kts | 334° |
| 2026-05-04 11:57 | 37.33657 | 3.03556 | 38037 ft | 360 kts | 334° |
| 2026-05-04 11:58 | 37.38476 | 3.01892 | 38040 ft | 358 kts | 334° |
| 2026-05-04 11:58 | 37.43280 | 3.00221 | 38040 ft | 358 kts | 334° |
| 2026-05-04 11:59 | 37.48096 | 2.98538 | 38041 ft | 360 kts | 334° |
| 2026-05-04 11:59 | 37.52922 | 2.96861 | 38041 ft | 360 kts | 334° |
| 2026-05-04 12:00 | 37.57755 | 2.95184 | 38040 ft | 360 kts | 334° |
| 2026-05-04 12:00 | 37.62584 | 2.93507 | 38041 ft | 360 kts | 334° |
| 2026-05-04 12:01 | 37.67413 | 2.91827 | 38040 ft | 360 kts | 334° |
| 2026-05-04 12:02 | 37.84401 | 2.85865 | 38035 ft | 363 kts | 334° |
| 2026-05-04 12:03 | 37.89273 | 2.84154 | 38029 ft | 363 kts | 334° |
| 2026-05-04 12:03 | 37.94149 | 2.82441 | 38031 ft | 365 kts | 333° |
| 2026-05-04 12:04 | 37.99045 | 2.80716 | 38027 ft | 366 kts | 333° |
| 2026-05-04 12:04 | 38.03952 | 2.78987 | 38027 ft | 366 kts | 333° |
| 2026-05-04 12:05 | 38.08857 | 2.77256 | 38027 ft | 366 kts | 333° |
| 2026-05-04 12:05 | 38.13760 | 2.75519 | 38027 ft | 366 kts | 333° |
| 2026-05-04 12:06 | 38.18670 | 2.73770 | 38013 ft | 367 kts | 333° |
| 2026-05-04 12:06 | 38.23602 | 2.72018 | 38027 ft | 368 kts | 333° |
| 2026-05-04 12:07 | 38.28537 | 2.70268 | 38022 ft | 368 kts | 333° |
| 2026-05-04 12:07 | 38.33730 | 2.69632 | 38017 ft | 399 kts | 6° |
| 2026-05-04 12:08 | 38.36340 | 2.71017 | 38022 ft | 417 kts | 30° |
| 2026-05-04 12:08 | 38.38424 | 2.73557 | 38018 ft | 426 kts | 56° |
| 2026-05-04 12:08 | 38.39793 | 2.76895 | 38022 ft | 426 kts | 74° |
| 2026-05-04 12:08 | 38.40379 | 2.80559 | 38016 ft | 419 kts | 93° |
| 2026-05-04 12:09 | 38.40149 | 2.84200 | 38019 ft | 407 kts | 112° |
| 2026-05-04 12:09 | 38.39188 | 2.87505 | 38011 ft | 391 kts | 129° |
| 2026-05-04 12:09 | 38.37651 | 2.90256 | 38014 ft | 373 kts | 145° |
| 2026-05-04 12:09 | 38.35723 | 2.92341 | 38007 ft | 356 kts | 159° |
| 2026-05-04 12:10 | 38.33567 | 2.93720 | 38029 ft | 340 kts | 172° |
| 2026-05-04 12:10 | 38.31287 | 2.94676 | 38023 ft | 352 kts | 173° |
| 2026-05-04 12:10 | 38.28913 | 2.95651 | 38030 ft | 366 kts | 172° |
| 2026-05-04 12:10 | 38.26450 | 2.96666 | 38018 ft | 379 kts | 172° |
| 2026-05-04 12:11 | 38.23903 | 2.97721 | 38033 ft | 390 kts | 172° |
| 2026-05-04 12:11 | 38.21287 | 2.98813 | 38032 ft | 401 kts | 171° |
| 2026-05-04 12:11 | 38.18602 | 2.99938 | 38036 ft | 412 kts | 171° |
| 2026-05-04 12:11 | 38.15851 | 3.01099 | 38031 ft | 420 kts | 171° |
| 2026-05-04 12:12 | 38.10251 | 3.03466 | 38024 ft | 427 kts | 171° |
| 2026-05-04 12:12 | 38.04597 | 3.05851 | 38010 ft | 430 kts | 170° |
| 2026-05-04 12:14 | 37.81365 | 3.15494 | 31295 ft | 450 kts | 167° |
| 2026-05-04 12:15 | 37.78382 | 3.16728 | 30189 ft | 452 kts | 167° |
| 2026-05-04 12:15 | 37.75410 | 3.17959 | 29301 ft | 445 kts | 167° |
| 2026-05-04 12:15 | 37.72502 | 3.19168 | 28497 ft | 437 kts | 167° |
| 2026-05-04 12:15 | 37.69630 | 3.20358 | 27718 ft | 431 kts | 167° |
| 2026-05-04 12:16 | 37.66803 | 3.21525 | 26927 ft | 425 kts | 168° |
| 2026-05-04 12:16 | 37.64011 | 3.22674 | 26178 ft | 420 kts | 168° |
| 2026-05-04 12:16 | 37.61244 | 3.23810 | 25422 ft | 416 kts | 168° |
| 2026-05-04 12:16 | 37.58508 | 3.24935 | 24682 ft | 412 kts | 168° |
| 2026-05-04 12:17 | 37.55796 | 3.26050 | 23971 ft | 408 kts | 168° |
| 2026-05-04 12:17 | 37.53101 | 3.27156 | 23218 ft | 405 kts | 168° |
| 2026-05-04 12:17 | 37.50439 | 3.28248 | 22546 ft | 399 kts | 168° |
| 2026-05-04 12:17 | 37.47819 | 3.29325 | 21944 ft | 393 kts | 168° |
| 2026-05-04 12:18 | 37.45236 | 3.30388 | 21362 ft | 388 kts | 168° |
| 2026-05-04 12:18 | 37.42686 | 3.31435 | 20782 ft | 382 kts | 168° |
| 2026-05-04 12:18 | 37.40180 | 3.32463 | 20222 ft | 377 kts | 168° |
| 2026-05-04 12:18 | 37.37728 | 3.33465 | 19655 ft | 373 kts | 168° |
| 2026-05-04 12:19 | 37.35271 | 3.34466 | 19062 ft | 370 kts | 168° |
| 2026-05-04 12:19 | 37.32833 | 3.35458 | 18468 ft | 367 kts | 168° |
| 2026-05-04 12:19 | 37.30406 | 3.36448 | 17798 ft | 365 kts | 168° |
| 2026-05-04 12:19 | 37.28009 | 3.37429 | 17182 ft | 361 kts | 168° |
| 2026-05-04 12:20 | 37.25628 | 3.38403 | 16571 ft | 358 kts | 168° |
| 2026-05-04 12:20 | 37.23271 | 3.39362 | 15960 ft | 355 kts | 168° |
| 2026-05-04 12:20 | 37.20928 | 3.40313 | 15356 ft | 352 kts | 168° |
| 2026-05-04 12:20 | 37.18604 | 3.41256 | 14757 ft | 350 kts | 168° |
| 2026-05-04 12:21 | 37.16296 | 3.42196 | 14150 ft | 348 kts | 168° |
| 2026-05-04 12:21 | 37.14002 | 3.43130 | 13513 ft | 346 kts | 168° |
| 2026-05-04 12:21 | 37.11723 | 3.44056 | 12876 ft | 343 kts | 168° |
| 2026-05-04 12:21 | 37.09467 | 3.44975 | 12266 ft | 339 kts | 168° |
| 2026-05-04 12:22 | 37.07238 | 3.45881 | 11647 ft | 335 kts | 168° |
| 2026-05-04 12:22 | 37.05032 | 3.46775 | 11016 ft | 332 kts | 168° |
| 2026-05-04 12:22 | 37.02850 | 3.47658 | 10508 ft | 325 kts | 168° |
| 2026-05-04 12:22 | 37.00759 | 3.48507 | 10384 ft | 307 kts | 168° |
| 2026-05-04 12:23 | 36.98780 | 3.49315 | 10260 ft | 291 kts | 168° |
| 2026-05-04 12:23 | 36.96886 | 3.50085 | 9971 ft | 283 kts | 168° |
| 2026-05-04 12:23 | 36.95035 | 3.50833 | 9831 ft | 279 kts | 169° |
| 2026-05-04 12:23 | 36.93193 | 3.51570 | 9678 ft | 277 kts | 168° |
| 2026-05-04 12:24 | 36.91351 | 3.52306 | 9236 ft | 280 kts | 168° |
| 2026-05-04 12:24 | 36.89503 | 3.53045 | 8729 ft | 277 kts | 168° |
| 2026-05-04 12:24 | 36.87661 | 3.53784 | 8249 ft | 276 kts | 168° |
| 2026-05-04 12:24 | 36.85870 | 3.54506 | 7797 ft | 273 kts | 167° |
| 2026-05-04 12:25 | 36.84072 | 3.55232 | 7306 ft | 270 kts | 167° |
| 2026-05-04 12:25 | 36.82305 | 3.55916 | 6565 ft | 262 kts | 172° |
| 2026-05-04 12:25 | 36.80525 | 3.56029 | 5740 ft | 253 kts | 190° |
| 2026-05-04 12:25 | 36.78871 | 3.55411 | 5050 ft | 247 kts | 207° |
| 2026-05-04 12:26 | 36.77472 | 3.54170 | 4449 ft | 249 kts | 224° |
| 2026-05-04 12:26 | 36.76318 | 3.52550 | 3887 ft | 252 kts | 227° |
| 2026-05-04 12:26 | 36.75197 | 3.50954 | 3757 ft | 236 kts | 226° |
| 2026-05-04 12:26 | 36.74157 | 3.49472 | 3702 ft | 218 kts | 225° |
| 2026-05-04 12:27 | 36.73196 | 3.48105 | 3657 ft | 202 kts | 225° |
| 2026-05-04 12:27 | 36.72291 | 3.46825 | 3589 ft | 191 kts | 225° |
| 2026-05-04 12:27 | 36.71433 | 3.45615 | 3509 ft | 185 kts | 227° |
| 2026-05-04 12:27 | 36.70561 | 3.44388 | 3430 ft | 190 kts | 226° |
| 2026-05-04 12:28 | 36.69687 | 3.43156 | 3343 ft | 189 kts | 227° |
| 2026-05-04 12:28 | 36.68926 | 3.41828 | 3221 ft | 189 kts | 242° |
| 2026-05-04 12:28 | 36.68632 | 3.40229 | 3029 ft | 194 kts | 267° |
| 2026-05-04 12:28 | 36.68670 | 3.38550 | 2830 ft | 193 kts | 270° |
| 2026-05-04 12:29 | 36.68718 | 3.36879 | 2563 ft | 192 kts | 269° |
| 2026-05-04 12:29 | 36.68761 | 3.35275 | 2320 ft | 177 kts | 271° |
| 2026-05-04 12:29 | 36.68798 | 3.33799 | 2099 ft | 164 kts | 272° |
| 2026-05-04 12:29 | 36.68833 | 3.32416 | 1886 ft | 154 kts | 272° |
| 2026-05-04 12:30 | 36.68865 | 3.31132 | 1712 ft | 140 kts | 271° |
| 2026-05-04 12:30 | 36.68894 | 3.29967 | 1522 ft | 130 kts | 270° |
| 2026-05-04 12:30 | 36.68921 | 3.28872 | 1353 ft | 124 kts | 269° |
| 2026-05-04 12:30 | 36.68947 | 3.27804 | 1187 ft | 123 kts | 269° |
| 2026-05-04 12:31 | 36.68973 | 3.26758 | 1020 ft | 121 kts | 269° |
| 2026-05-04 12:31 | 36.68999 | 3.25716 | 866 ft | 120 kts | 270° |
| 2026-05-04 12:31 | 36.69024 | 3.24693 | 697 ft | 117 kts | 272° |
| 2026-05-04 12:31 | 36.69047 | 3.23683 | 549 ft | 116 kts | 274° |
| 2026-05-04 12:32 | 36.69072 | 3.22678 | 390 ft | 116 kts | 276° |
| 2026-05-04 12:32 | 36.69120 | 3.20695 | 84 ft | 112 kts | 279° |
| 2026-05-04 12:32 | 36.69140 | 3.19907 | 74 ft | 66 kts | 272° |
| 2026-05-04 12:33 | 36.69151 | 3.19414 | 72 ft | 51 kts | 271° |
| 2026-05-04 12:33 | 36.69162 | 3.18993 | 83 ft | 46 kts | 272° |
| 2026-05-04 12:33 | 36.69170 | 3.18606 | 81 ft | 38 kts | 272° |
| 2026-05-04 12:33 | 36.69216 | 3.18431 | 77 ft | 18 kts | 341° |
| 2026-05-04 12:34 | 36.69309 | 3.18433 | 72 ft | 20 kts | 14° |
| 2026-05-04 12:34 | 36.69338 | 3.18527 | 71 ft | 10 kts | 92° |
| 2026-05-04 12:34 | 36.69336 | 3.18623 | 71 ft | 14 kts | 91° |
| 2026-05-04 12:34 | 36.69334 | 3.18798 | 67 ft | 24 kts | 91° |
| 2026-05-04 12:35 | 36.69327 | 3.19113 | 71 ft | 30 kts | 92° |
| 2026-05-04 12:35 | 36.69323 | 3.19272 | 71 ft | 25 kts | 91° |
| 2026-05-04 12:35 | 36.69317 | 3.19501 | 71 ft | 26 kts | 91° |
| 2026-05-04 12:35 | 36.69312 | 3.19715 | 71 ft | 24 kts | 92° |
| 2026-05-04 12:36 | 36.69328 | 3.19881 | 63 ft | 16 kts | 37° |
| 2026-05-04 12:36 | 36.69449 | 3.19899 | 70 ft | 17 kts | 1° |
| 2026-05-04 12:36 | 36.69553 | 3.19902 | 66 ft | 9 kts | 357° |
| 2026-05-04 12:36 | 36.69568 | 3.19836 | 68 ft | 7 kts | 272° |
| 2026-05-04 12:37 | 36.69569 | 3.19816 | 70 ft | 0 kts | 271° |